Time;durP1;ratioP1;P1;durP2;ratioP2;P2;SDS_P1;SDS_P2;PMS_P1;PMS_P2;Temp;Humidity;BMP_temperature;BMP_pressure;BME280_temperature;BME280_humidity;BME280_pressure;Samples;Min_cycle;Max_cycle;Signal;HPM_P1;HPM_P2
2023/08/10 00:01:45;;;;;;;11.23;2.80;;;13.40;99.90;;;;;;6279729;22;20026;-85
2023/08/10 00:04:11;;;;;;;8.70;2.80;;;13.50;99.90;;;;;;6300881;22;20447;-85
2023/08/10 00:06:39;;;;;;;10.32;2.90;;;13.50;99.90;;;;;;6276084;22;20020;-85
2023/08/10 00:09:05;;;;;;;8.25;2.75;;;14.40;99.90;;;;;;6277563;22;20014;-84
2023/08/10 00:12:28;;;;;;;10.23;2.70;;;14.50;99.90;;;;;;6250058;22;20108;-85
2023/08/10 00:14:59;;;;;;;11.73;2.97;;;13.50;99.90;;;;;;6181167;23;20399;-84
2023/08/10 00:17:35;;;;;;;;;;;;;;;;;;;;;
2023/08/10 00:20:14;;;;;;;10.95;2.88;;;13.60;99.90;;;;;;6182625;23;20025;-84
2023/08/10 00:22:39;;;;;;;11.77;2.80;;;13.70;99.90;;;;;;6180625;23;20354;-85
2023/08/10 00:25:17;;;;;;;9.57;2.78;;;14.40;99.90;;;;;;6158552;23;20164;-84
2023/08/10 00:27:43;;;;;;;14.30;3.15;;;14.00;99.90;;;;;;6157217;23;20060;-85
2023/08/10 00:30:09;;;;;;;10.63;2.67;;;13.40;99.90;;;;;;6158434;23;20029;-85
2023/08/10 00:32:50;;;;;;;10.50;2.85;;;13.30;99.90;;;;;;6206441;22;20023;-84
2023/08/10 00:35:15;;;;;;;9.60;2.70;;;13.30;99.90;;;;;;6248545;22;20019;-84
2023/08/10 00:37:41;;;;;;;11.10;2.60;;;13.20;99.90;;;;;;6278623;22;20474;-85
2023/08/10 00:40:12;;;;;;;11.00;2.80;;;13.40;99.90;;;;;;6253248;22;20024;-85
2023/08/10 00:43:03;;;;;;;9.07;2.53;;;13.10;99.90;;;;;;6251980;22;20031;-84
2023/08/10 00:45:29;;;;;;;8.68;2.88;;;13.10;99.90;;;;;;6277051;22;20340;-84
2023/08/10 00:47:56;;;;;;;7.97;2.60;;;13.00;99.90;;;;;;6249313;22;20030;-85
2023/08/10 00:50:23;;;;;;;9.82;3.00;;;13.00;99.90;;;;;;6276015;22;20016;-84
2023/08/10 00:52:59;;;;;;;;;;;;;;;;;;;;;
2023/08/10 00:55:25;;;;;;;10.07;3.03;;;13.60;99.90;;;;;;6276879;22;20019;-84
2023/08/10 00:57:51;;;;;;;9.50;3.33;;;12.80;99.90;;;;;;6247711;22;20019;-85
2023/08/10 01:00:17;;;;;;;8.63;2.63;;;12.80;99.90;;;;;;6276935;22;20379;-84
2023/08/10 01:02:42;;;;;;;9.60;2.80;;;12.80;99.90;;;;;;6276510;22;20095;-84
2023/08/10 01:08:35;;;;;;;10.43;3.05;;;13.70;99.90;;;;;;6307228;22;20032;-83
2023/08/10 01:11:23;;;;;;;10.60;3.20;;;12.70;99.90;;;;;;6306966;22;20026;-84
2023/08/10 01:14:16;;;;;;;10.77;3.33;;;13.10;99.90;;;;;;6279304;22;20011;-84
2023/08/10 01:16:50;;;;;;;9.38;3.00;;;12.70;99.90;;;;;;6279875;22;20047;-84
2023/08/10 01:19:38;;;;;;;12.48;3.28;;;12.70;99.90;;;;;;6280452;22;20007;-84
2023/08/10 01:22:16;;;;;;;9.65;3.00;;;12.70;99.90;;;;;;6306933;22;20078;-84
2023/08/10 01:25:04;;;;;;;8.52;3.33;;;12.70;99.90;;;;;;6278620;22;20042;-84
2023/08/10 01:27:34;;;;;;;8.85;2.85;;;12.80;99.90;;;;;;6279932;22;20023;-84
2023/08/10 01:30:03;;;;;;;11.45;3.00;;;12.80;99.90;;;;;;6280036;22;20047;-84
2023/08/10 01:32:41;;;;;;;9.98;3.15;;;12.90;99.90;;;;;;6306232;22;20463;-84
2023/08/10 01:35:07;;;;;;;10.50;3.10;;;14.00;99.90;;;;;;6279822;22;20344;-84
2023/08/10 01:37:34;;;;;;;9.52;2.70;;;13.00;99.90;;;;;;6278699;22;20368;-84
2023/08/10 01:40:00;;;;;;;10.68;2.78;;;13.00;99.90;;;;;;6278911;22;20092;-84
2023/08/10 01:42:35;;;;;;;9.80;3.00;;;13.00;99.90;;;;;;6307388;22;20015;-84
2023/08/10 01:45:04;;;;;;;9.77;2.70;;;13.10;99.90;;;;;;6306277;22;20007;-84
2023/08/10 01:48:09;;;;;;;8.90;2.83;;;13.10;99.90;;;;;;6275800;22;20019;-85
2023/08/10 01:50:54;;;;;;;12.90;3.22;;;12.70;99.90;;;;;;6279639;22;20046;-84
2023/08/10 01:53:45;;;;;;;9.00;2.50;;;13.10;99.90;;;;;;6278748;22;20061;-84
2023/08/10 01:56:11;;;;;;;8.18;2.70;;;13.20;99.90;;;;;;6304974;22;20026;-84
2023/08/10 01:58:40;;;;;;;14.00;3.55;;;13.20;99.90;;;;;;6279179;22;20015;-84
2023/08/10 02:01:40;;;;;;;7.40;2.60;;;13.10;99.90;;;;;;6305947;22;20015;-84
2023/08/10 02:04:06;;;;;;;10.85;2.95;;;12.70;99.90;;;;;;6278731;22;20019;-84
2023/08/10 02:06:58;;;;;;;9.20;2.75;;;13.20;99.90;;;;;;6277958;22;20021;-84
2023/08/10 02:09:40;;;;;;;10.75;2.83;;;12.80;99.90;;;;;;6279009;22;20019;-85
2023/08/10 02:12:06;;;;;;;10.15;2.65;;;12.90;99.90;;;;;;6278236;22;20023;-84
2023/08/10 02:14:47;;;;;;;10.00;2.85;;;13.30;99.90;;;;;;6305923;22;20308;-84
2023/08/10 02:17:35;;;;;;;9.13;2.90;;;13.20;99.90;;;;;;6306258;22;20026;-84
2023/08/10 02:20:14;;;;;;;10.63;2.90;;;14.10;99.90;;;;;;6307114;22;20033;-84
2023/08/10 02:23:28;;;;;;;9.18;2.80;;;13.20;99.90;;;;;;6306167;22;20391;-84
2023/08/10 02:25:54;;;;;;;13.10;3.65;;;13.30;99.90;;;;;;6278614;22;20108;-84
2023/08/10 02:28:20;;;;;;;9.80;2.80;;;13.30;99.90;;;;;;6278597;22;20019;-84
2023/08/10 02:30:50;;;;;;;10.25;2.88;;;13.30;99.90;;;;;;6306749;22;20016;-84
2023/08/10 02:33:15;;;;;;;10.05;2.70;;;13.20;99.90;;;;;;6279647;22;20022;-84
2023/08/10 02:35:41;;;;;;;10.00;2.90;;;13.20;99.90;;;;;;6278487;22;20019;-84
2023/08/10 02:38:18;;;;;;;9.07;2.70;;;13.20;99.90;;;;;;6306716;22;20022;-84
2023/08/10 02:40:44;;;;;;;9.15;3.20;;;13.50;99.90;;;;;;6279158;22;20019;-84
2023/08/10 02:43:19;;;;;;;12.48;2.97;;;13.10;99.90;;;;;;6305652;22;20056;-84
2023/08/10 02:49:25;;;;;;;10.02;2.97;;;13.00;99.90;;;;;;6305783;22;20024;-84
2023/08/10 02:52:02;;;;;;;12.05;3.20;;;13.00;99.90;;;;;;6278390;22;20054;-84
2023/08/10 02:54:41;;;;;;;8.57;3.05;;;12.90;99.90;;;;;;6279392;22;20019;-84
2023/08/10 02:57:06;;;;;;;8.65;2.90;;;12.90;99.90;;;;;;6278913;22;20334;-84
2023/08/10 02:59:40;;;;;;;12.48;3.15;;;12.80;99.90;;;;;;6306677;22;20078;-84
2023/08/10 03:02:22;;;;;;;9.57;3.20;;;13.30;99.90;;;;;;6306867;22;20016;-84
2023/08/10 03:04:48;;;;;;;10.95;3.25;;;12.80;99.90;;;;;;6277495;22;20077;-84
2023/08/10 03:07:42;;;;;;;11.35;3.10;;;12.70;99.90;;;;;;6278848;22;20023;-84
2023/08/10 03:10:14;;;;;;;10.73;3.20;;;12.60;99.90;;;;;;6278044;22;20035;-84
2023/08/10 03:12:40;;;;;;;12.05;3.28;;;12.80;99.90;;;;;;6279310;22;20464;-84
2023/08/10 03:15:15;;;;;;;11.07;3.65;;;12.80;99.90;;;;;;6306772;22;20038;-84
2023/08/10 03:17:41;;;;;;;8.95;3.25;;;14.10;99.90;;;;;;6278338;22;20015;-84
2023/08/10 03:20:18;;;;;;;12.38;3.55;;;12.80;99.90;;;;;;6306090;22;20015;-84
2023/08/10 03:22:44;;;;;;;9.18;3.60;;;12.80;99.90;;;;;;6306303;22;20090;-84
2023/08/10 03:25:10;;;;;;;9.82;3.65;;;13.80;99.90;;;;;;6305869;22;20042;-84
2023/08/10 03:27:36;;;;;;;11.15;3.40;;;12.80;99.90;;;;;;6306506;22;20023;-84
2023/08/10 03:30:04;;;;;;;12.13;3.72;;;12.90;99.90;;;;;;6306521;22;20011;-84
2023/08/10 03:32:35;;;;;;;11.00;3.53;;;12.90;99.90;;;;;;6305369;22;20439;-84
2023/08/10 03:35:01;;;;;;;10.40;3.72;;;12.90;99.90;;;;;;6304837;22;20090;-84
2023/08/10 03:37:42;;;;;;;11.65;3.70;;;12.90;99.90;;;;;;6280270;22;20050;-84
2023/08/10 03:40:08;;;;;;;10.27;3.53;;;12.70;99.90;;;;;;6311663;22;20011;-84
2023/08/10 03:42:49;;;;;;;10.73;3.50;;;12.90;99.90;;;;;;6280823;22;20015;-84
2023/08/10 03:45:14;;;;;;;12.05;3.75;;;12.90;99.90;;;;;;6280166;22;20019;-84
2023/08/10 03:50:13;;;;;;;11.48;3.65;;;13.00;99.90;;;;;;6246652;23;20020;-84
2023/08/10 03:52:38;;;;;;;9.55;3.10;;;13.00;99.90;;;;;;6218207;23;20020;-84
2023/08/10 03:55:25;;;;;;;12.77;3.33;;;13.00;99.90;;;;;;6219746;23;20095;-84
2023/08/10 03:57:56;;;;;;;9.40;3.20;;;13.00;99.90;;;;;;6219175;23;20027;-85
2023/08/10 04:01:06;;;;;;;9.90;3.08;;;13.00;99.90;;;;;;6245741;23;20019;-84
2023/08/10 04:03:59;;;;;;;9.75;3.50;;;13.00;99.90;;;;;;6245381;23;20506;-84
2023/08/10 04:06:25;;;;;;;10.10;3.08;;;13.10;99.90;;;;;;6217412;23;20515;-84
2023/08/10 04:08:56;;;;;;;13.00;3.45;;;13.10;99.90;;;;;;6245812;23;20059;-84
2023/08/10 04:11:43;;;;;;;10.25;3.40;;;13.20;99.90;;;;;;6219407;23;20328;-84
2023/08/10 04:14:25;;;;;;;9.88;3.13;;;14.40;99.90;;;;;;6217838;23;20016;-84
2023/08/10 04:16:51;;;;;;;9.98;3.20;;;13.20;99.90;;;;;;6218933;23;20023;-84
2023/08/10 04:19:20;;;;;;;12.07;3.78;;;13.80;99.90;;;;;;6219361;23;20015;-84
2023/08/10 04:21:46;;;;;;;11.93;3.40;;;13.10;99.90;;;;;;6217319;23;20016;-84
2023/08/10 04:24:12;;;;;;;11.00;3.13;;;13.00;99.90;;;;;;6244343;23;20004;-84
2023/08/10 04:26:46;;;;;;;10.60;3.28;;;14.40;99.90;;;;;;6246019;23;20028;-84
2023/08/10 04:29:38;;;;;;;9.85;2.90;;;13.20;99.90;;;;;;6226444;22;20031;-84
2023/08/10 04:32:04;;;;;;;13.07;3.33;;;13.20;99.90;;;;;;6276453;22;20073;-85
2023/08/10 04:34:45;;;;;;;10.35;3.30;;;13.30;99.90;;;;;;6276318;22;20138;-84
2023/08/10 04:37:13;;;;;;;8.93;3.13;;;13.30;99.90;;;;;;6277027;22;20019;-85
2023/08/10 04:39:39;;;;;;;10.70;3.42;;;14.30;99.90;;;;;;6248753;22;20513;-84
2023/08/10 04:42:23;;;;;;;16.85;3.95;;;13.30;99.90;;;;;;6248772;22;20051;-84
2023/08/10 04:44:49;;;;;;;9.95;3.83;;;14.60;99.90;;;;;;6249246;22;20015;-85
2023/08/10 04:47:19;;;;;;;12.02;3.40;;;13.40;99.90;;;;;;6249418;22;20065;-84
2023/08/10 04:49:48;;;;;;;8.65;2.92;;;13.40;99.90;;;;;;6248016;22;20042;-84
2023/08/10 04:52:13;;;;;;;12.63;3.38;;;13.40;99.90;;;;;;6275907;22;20069;-84
2023/08/10 04:55:05;;;;;;;13.57;3.45;;;13.50;99.90;;;;;;6300054;22;20023;-84
2023/08/10 04:57:31;;;;;;;10.55;3.50;;;13.10;99.90;;;;;;6306652;22;20018;-84
2023/08/10 04:59:56;;;;;;;11.32;3.70;;;13.50;99.90;;;;;;6308416;22;20082;-85
2023/08/10 05:02:22;;;;;;;11.25;3.58;;;13.60;99.90;;;;;;6308117;22;20043;-84
2023/08/10 05:04:51;;;;;;;10.38;3.50;;;13.60;99.90;;;;;;6307766;22;20051;-84
2023/08/10 05:07:16;;;;;;;12.55;4.07;;;13.60;99.90;;;;;;6279515;22;20065;-84
2023/08/10 05:09:55;;;;;;;11.63;3.70;;;13.70;99.90;;;;;;6305238;22;20016;-84
2023/08/10 05:12:21;;;;;;;8.98;3.30;;;14.30;99.90;;;;;;6279935;22;20026;-84
2023/08/10 05:14:56;;;;;;;11.05;3.78;;;13.90;99.90;;;;;;6279325;22;20012;-84
2023/08/10 05:17:22;;;;;;;10.27;3.80;;;13.70;99.90;;;;;;6278621;22;20037;-84
2023/08/10 05:19:48;;;;;;;10.90;4.10;;;13.80;99.90;;;;;;6279819;22;20436;-84
2023/08/10 05:22:16;;;;;;;12.93;3.90;;;13.80;99.90;;;;;;6307126;22;20147;-84
2023/08/10 05:24:47;;;;;;;9.80;3.83;;;13.90;99.90;;;;;;6278628;22;20407;-84
2023/08/10 05:27:31;;;;;;;11.40;3.90;;;13.90;99.90;;;;;;6280419;22;20451;-84
2023/08/10 05:29:57;;;;;;;10.05;3.70;;;14.00;99.90;;;;;;6280492;22;20019;-84
2023/08/10 05:33:00;;;;;;;12.50;3.70;;;14.90;99.90;;;;;;6305811;22;20068;-84
2023/08/10 05:35:26;;;;;;;11.88;4.18;;;14.10;99.90;;;;;;6279273;22;20022;-83
2023/08/10 05:37:52;;;;;;;9.98;4.15;;;14.20;99.90;;;;;;6302511;22;20019;-81
2023/08/10 05:40:18;;;;;;;10.77;4.10;;;14.20;99.90;;;;;;6277348;22;20333;-83
2023/08/10 05:42:45;;;;;;;11.63;4.50;;;14.20;99.90;;;;;;6305748;22;20024;-83
2023/08/10 05:45:15;;;;;;;14.60;4.10;;;14.30;99.90;;;;;;6277425;22;20015;-83
2023/08/10 05:47:42;;;;;;;13.07;4.40;;;15.10;99.90;;;;;;6278132;22;20011;-83
2023/08/10 05:50:11;;;;;;;12.90;4.30;;;14.40;99.90;;;;;;6305941;22;20095;-83
2023/08/10 05:52:44;;;;;;;13.30;4.10;;;14.50;99.90;;;;;;6304542;22;20011;-83
2023/08/10 05:55:10;;;;;;;12.88;4.13;;;15.40;99.90;;;;;;6278380;22;20325;-83
2023/08/10 05:57:36;;;;;;;11.20;3.92;;;14.60;99.90;;;;;;6305658;22;20076;-83
2023/08/10 06:00:03;;;;;;;12.23;4.40;;;15.00;99.90;;;;;;6305139;22;20486;-83
2023/08/10 06:02:45;;;;;;;12.20;4.20;;;14.80;99.90;;;;;;6278277;22;20052;-83
2023/08/10 06:05:25;;;;;;;13.10;4.40;;;14.90;99.90;;;;;;6277852;22;20022;-83
2023/08/10 06:08:00;;;;;;;12.40;4.00;;;14.90;99.90;;;;;;6305382;22;20011;-85
2023/08/10 06:10:26;;;;;;;9.93;3.80;;;15.00;99.90;;;;;;6306040;22;20011;-83
2023/08/10 06:12:52;;;;;;;10.95;3.88;;;15.10;99.90;;;;;;6277058;22;20490;-82
2023/08/10 06:15:18;;;;;;;11.93;4.30;;;15.10;99.90;;;;;;6304807;22;20011;-82
2023/08/10 06:17:44;;;;;;;11.13;3.40;;;15.20;99.90;;;;;;6305655;22;20102;-83
2023/08/10 06:20:13;;;;;;;9.95;3.70;;;15.30;99.90;;;;;;6277255;22;20063;-82
2023/08/10 06:22:41;;;;;;;12.23;4.28;;;15.30;99.90;;;;;;6277615;22;20462;-83
2023/08/10 06:25:08;;;;;;;14.30;3.88;;;15.30;99.90;;;;;;6305996;22;20011;-83
2023/08/10 06:27:35;;;;;;;10.20;4.00;;;15.30;99.90;;;;;;6304526;22;20015;-83
2023/08/10 06:30:02;;;;;;;11.32;4.00;;;15.40;99.90;;;;;;6305647;22;20011;-82
2023/08/10 06:32:47;;;;;;;10.60;4.18;;;15.30;99.90;;;;;;6277961;22;20090;-82
2023/08/10 06:35:13;;;;;;;12.63;4.60;;;15.10;99.90;;;;;;6276895;22;20042;-82
2023/08/10 06:37:42;;;;;;;10.27;3.85;;;15.30;99.90;;;;;;6228886;22;1114887;-83
2023/08/10 06:40:09;;;;;;;13.40;4.43;;;15.30;99.90;;;;;;6279236;22;20038;-83
2023/08/10 06:42:50;;;;;;;11.82;4.75;;;15.30;99.90;;;;;;6305455;22;20018;-83
2023/08/10 06:45:16;;;;;;;11.50;4.60;;;15.20;99.90;;;;;;6305086;22;20039;-82
2023/08/10 06:47:44;;;;;;;11.77;4.75;;;15.30;99.90;;;;;;6278172;22;20027;-82
2023/08/10 06:50:09;;;;;;;10.13;3.97;;;15.30;99.90;;;;;;6305257;22;20015;-81
2023/08/10 06:52:51;;;;;;;11.05;4.10;;;15.80;99.90;;;;;;6278624;22;20019;-82
2023/08/10 06:55:28;;;;;;;12.75;4.20;;;15.50;99.90;;;;;;6278337;22;20019;-81
2023/08/10 06:57:54;;;;;;;11.40;3.80;;;15.60;99.90;;;;;;6278957;22;20374;-81
2023/08/10 07:00:32;;;;;;;8.82;2.90;;;15.70;99.90;;;;;;6306687;22;20007;-81
2023/08/10 07:03:06;;;;;;;9.23;2.67;;;15.60;99.90;;;;;;6277523;22;20015;-81
2023/08/10 07:05:37;;;;;;;8.98;2.35;;;15.80;99.90;;;;;;6306741;22;20008;-81
2023/08/10 07:08:12;;;;;;;10.10;2.50;;;15.90;99.90;;;;;;6306657;22;20034;-81
2023/08/10 07:10:38;;;;;;;10.38;2.58;;;15.90;99.90;;;;;;6278255;22;20057;-82
2023/08/10 07:13:03;;;;;;;8.45;2.30;;;16.00;99.90;;;;;;6281426;22;20343;-81
2023/08/10 07:15:33;;;;;;;11.77;2.33;;;16.70;99.90;;;;;;6308618;22;20050;-81
2023/08/10 07:17:59;;;;;;;8.95;2.50;;;17.00;99.90;;;;;;6280183;22;20011;-82
2023/08/10 07:20:38;;;;;;;9.00;2.83;;;16.30;99.90;;;;;;6281046;22;20465;-82
2023/08/10 07:23:27;;;;;;;11.27;2.65;;;16.40;99.90;;;;;;6279987;22;20090;-82
2023/08/10 07:26:01;;;;;;;10.77;2.45;;;16.50;99.90;;;;;;6280141;22;20344;-82
2023/08/10 07:28:33;;;;;;;8.30;2.10;;;16.70;99.90;;;;;;6280766;22;20477;-82
2023/08/10 07:31:00;;;;;;;10.10;2.00;;;16.80;99.90;;;;;;6279872;22;20015;-82
2023/08/10 07:34:14;;;;;;;7.28;1.90;;;16.80;99.90;;;;;;6261038;22;20023;-82
2023/08/10 07:36:55;;;;;;;9.02;2.40;;;16.80;99.90;;;;;;6289576;22;20516;-82
2023/08/10 07:39:20;;;;;;;6.10;1.90;;;17.50;99.90;;;;;;6280909;22;20022;-81
2023/08/10 07:41:46;;;;;;;6.88;1.90;;;17.00;99.90;;;;;;6278030;22;20016;-82
2023/08/10 07:44:12;;;;;;;6.10;1.75;;;17.00;99.90;;;;;;6278819;22;20026;-82
2023/08/10 07:46:37;;;;;;;8.93;2.00;;;17.10;99.90;;;;;;6307366;22;20015;-83
2023/08/10 07:49:11;;;;;;;9.52;2.10;;;17.10;99.90;;;;;;6280127;22;20023;-83
2023/08/10 07:51:41;;;;;;;8.73;1.85;;;17.00;99.90;;;;;;6279271;22;20019;-81
2023/08/10 07:54:22;;;;;;;9.75;2.00;;;17.00;99.90;;;;;;6279776;22;20023;-85
2023/08/10 07:56:48;;;;;;;6.30;1.83;;;16.90;99.90;;;;;;6280182;22;20027;-83
2023/08/10 07:59:16;;;;;;;7.63;2.00;;;17.00;99.90;;;;;;6278929;22;20108;-82
2023/08/10 08:01:42;;;;;;;7.13;2.25;;;17.10;99.90;;;;;;6279228;22;20385;-82
2023/08/10 08:04:08;;;;;;;9.30;2.30;;;17.20;99.90;;;;;;6307568;22;20007;-82
2023/08/10 08:07:09;;;;;;;9.18;2.00;;;17.50;99.90;;;;;;6279203;22;20021;-82
2023/08/10 08:09:41;;;;;;;6.47;2.10;;;17.70;99.90;;;;;;6156397;23;20028;-82
2023/08/10 08:12:07;;;;;;;7.88;1.90;;;17.80;99.90;;;;;;6275365;22;20836;-81
2023/08/10 08:14:42;;;;;;;10.52;2.50;;;17.80;99.90;;;;;;6309997;22;20023;-82
2023/08/10 08:17:46;;;;;;;8.63;2.20;;;17.90;99.90;;;;;;6279881;22;20444;-82
2023/08/10 08:21:07;;;;;;;9.43;2.45;;;17.90;99.90;;;;;;6305981;22;20509;-83
2023/08/10 08:23:39;;;;;;;8.27;2.10;;;17.90;99.90;;;;;;6279782;22;20022;-82
2023/08/10 08:26:11;;;;;;;8.68;2.17;;;17.90;99.90;;;;;;6307058;22;20477;-83
2023/08/10 08:28:45;;;;;;;7.17;2.00;;;17.90;99.90;;;;;;6278984;22;20444;-82
2023/08/10 08:31:14;;;;;;;10.25;2.42;;;18.10;99.90;;;;;;6306800;22;20244;-83
2023/08/10 08:33:39;;;;;;;8.50;2.25;;;18.40;99.90;;;;;;6278274;22;20019;-83
2023/08/10 08:36:15;;;;;;;7.50;2.25;;;18.70;99.90;;;;;;6279362;22;20019;-82
2023/08/10 08:38:41;;;;;;;8.02;2.42;;;18.70;99.90;;;;;;6277292;22;20022;-82
2023/08/10 08:41:09;;;;;;;6.88;1.77;;;18.80;99.90;;;;;;6306020;22;20020;-82
2023/08/10 08:43:36;;;;;;;5.72;1.70;;;19.20;99.90;;;;;;6278063;22;20011;-82
2023/08/10 08:46:03;;;;;;;5.60;1.65;;;19.00;99.90;;;;;;6279574;22;20447;-81
2023/08/10 08:48:38;;;;;;;7.25;1.77;;;19.00;99.90;;;;;;6307874;22;20011;-81
2023/08/10 08:51:05;;;;;;;10.13;2.00;;;19.00;99.90;;;;;;6280122;22;20041;-83
2023/08/10 08:53:32;;;;;;;6.18;1.80;;;19.10;99.90;;;;;;6307635;22;20082;-84
2023/08/10 08:56:10;;;;;;;7.20;1.95;;;19.10;99.90;;;;;;6278378;22;20053;-84
2023/08/10 08:58:36;;;;;;;13.32;2.20;;;19.20;99.90;;;;;;6307118;22;20055;-84
2023/08/10 09:01:03;;;;;;;10.27;2.28;;;19.10;99.90;;;;;;6278524;22;20026;-83
2023/08/10 09:03:32;;;;;;;7.43;2.10;;;19.10;99.90;;;;;;6307352;22;20011;-83
2023/08/10 09:05:58;;;;;;;9.35;2.20;;;19.00;99.90;;;;;;6279485;22;20011;-83
2023/08/10 09:08:24;;;;;;;8.75;2.10;;;18.70;99.90;;;;;;6278735;22;20015;-84
2023/08/10 09:10:50;;;;;;;7.63;2.20;;;19.00;99.90;;;;;;6279704;22;20026;-84
2023/08/10 09:13:56;;;;;;;8.52;2.10;;;18.90;99.90;;;;;;6306591;22;20098;-84
2023/08/10 09:16:25;;;;;;;9.45;2.10;;;18.80;99.90;;;;;;6305500;22;20015;-83
2023/08/10 09:18:51;;;;;;;7.78;2.10;;;18.90;99.90;;;;;;6279195;22;20011;-83
2023/08/10 09:21:31;;;;;;;6.28;2.05;;;18.90;99.90;;;;;;6306863;22;20098;-83
2023/08/10 09:23:56;;;;;;;8.10;2.10;;;18.90;99.90;;;;;;6307287;22;20026;-83
2023/08/10 09:26:53;;;;;;;9.07;2.33;;;18.90;99.90;;;;;;6306734;22;20057;-83
2023/08/10 09:29:41;;;;;;;9.63;2.28;;;18.80;99.90;;;;;;6278308;22;20011;-83
2023/08/10 09:32:07;;;;;;;7.18;2.00;;;18.50;99.90;;;;;;6307246;22;20012;-83
2023/08/10 09:41:55;;;;;;;9.55;2.30;;;18.80;99.90;;;;;;6274519;22;20027;-83
2023/08/10 09:44:45;;;;;;;8.18;2.17;;;18.80;99.90;;;;;;6275649;22;20016;-85
2023/08/10 09:47:11;;;;;;;8.63;2.28;;;18.80;99.90;;;;;;6248790;22;20090;-84
2023/08/10 09:50:03;;;;;;;8.20;2.08;;;18.80;99.90;;;;;;6275837;22;20019;-85
2023/08/10 09:52:36;;;;;;;6.15;1.90;;;18.80;99.90;;;;;;6272573;22;20049;-85
2023/08/10 09:55:15;;;;;;;10.18;2.45;;;18.90;99.90;;;;;;6248927;22;20023;-84
2023/08/10 09:58:13;;;;;;;10.85;2.25;;;18.90;99.90;;;;;;6247411;22;20016;-84
2023/08/10 10:00:56;;;;;;;8.30;2.10;;;18.90;99.90;;;;;;6249419;22;20019;-83
2023/08/10 10:03:42;;;;;;;8.35;2.33;;;19.00;99.90;;;;;;6275305;22;20352;-83
2023/08/10 10:06:13;;;;;;;7.65;2.30;;;19.00;99.90;;;;;;6180404;23;20390;-83
2023/08/10 10:08:40;;;;;;;9.25;2.05;;;19.00;99.90;;;;;;6155809;23;20240;-83
2023/08/10 10:11:21;;;;;;;7.97;2.13;;;19.00;99.90;;;;;;6273500;22;20019;-83
2023/08/10 10:13:47;;;;;;;7.32;2.10;;;19.00;99.90;;;;;;6247066;22;20012;-83
2023/08/10 10:16:13;;;;;;;8.93;2.10;;;19.00;99.90;;;;;;6248098;22;20026;-83
2023/08/10 10:18:45;;;;;;;7.85;2.42;;;19.00;99.90;;;;;;6274349;22;20011;-83
2023/08/10 10:21:14;;;;;;;6.18;1.92;;;19.00;99.90;;;;;;6247021;22;20019;-83
2023/08/10 10:23:41;;;;;;;7.47;2.30;;;19.00;99.90;;;;;;6247700;22;20111;-82
2023/08/10 10:26:18;;;;;;;8.70;2.33;;;19.00;99.90;;;;;;6247174;22;20016;-83
2023/08/10 10:29:15;;;;;;;9.80;2.33;;;19.00;99.90;;;;;;6248003;22;20095;-83
2023/08/10 10:31:40;;;;;;;6.40;2.00;;;18.90;99.90;;;;;;6247748;22;20062;-82
2023/08/10 10:34:11;;;;;;;7.72;2.10;;;18.80;99.90;;;;;;6247892;22;20016;-84
2023/08/10 10:36:46;;;;;;;7.80;2.20;;;19.10;99.90;;;;;;6253569;22;20015;-83
2023/08/10 10:39:35;;;;;;;6.80;1.98;;;18.80;99.90;;;;;;6298868;22;20018;-82
2023/08/10 10:42:00;;;;;;;5.07;1.80;;;18.80;99.90;;;;;;6276697;22;20023;-85
2023/08/10 10:45:16;;;;;;;7.15;2.20;;;18.80;99.90;;;;;;6278273;22;20330;-85
2023/08/10 10:47:47;;;;;;;10.13;2.47;;;18.80;99.90;;;;;;6278282;22;20023;-84
2023/08/10 10:50:30;;;;;;;8.73;2.30;;;18.80;99.90;;;;;;6308115;22;20057;-85
2023/08/10 10:53:15;;;;;;;6.70;2.15;;;18.70;99.90;;;;;;6308106;22;20015;-85
2023/08/10 10:55:44;;;;;;;7.90;2.45;;;18.60;99.90;;;;;;6279503;22;20046;-82
2023/08/10 10:58:12;;;;;;;8.50;2.30;;;18.60;99.90;;;;;;6308011;22;20344;-82
2023/08/10 11:00:38;;;;;;;9.95;2.45;;;18.60;99.90;;;;;;6279644;22;20113;-82
2023/08/10 11:03:13;;;;;;;6.53;2.13;;;18.70;99.90;;;;;;6308749;22;20073;-82
2023/08/10 11:05:41;;;;;;;7.15;2.05;;;18.30;99.90;;;;;;6281174;22;20047;-82
2023/08/10 11:08:07;;;;;;;5.40;1.83;;;18.60;99.90;;;;;;6279077;22;20031;-84
2023/08/10 11:10:40;;;;;;;6.65;2.25;;;18.60;99.90;;;;;;6308532;22;20340;-85
2023/08/10 11:13:08;;;;;;;7.00;1.85;;;18.60;99.90;;;;;;6281716;22;20026;-84
2023/08/10 11:15:50;;;;;;;7.43;2.00;;;18.70;99.90;;;;;;6280165;22;20034;-84
2023/08/10 11:18:16;;;;;;;6.57;1.90;;;18.70;99.90;;;;;;6282025;22;20373;-83
2023/08/10 11:20:56;;;;;;;;;;;;;;;;;;;;;
2023/08/10 11:23:35;;;;;;;7.88;2.00;;;18.50;99.90;;;;;;6304956;22;20015;-84
2023/08/10 11:26:02;;;;;;;7.35;2.00;;;18.50;99.90;;;;;;6281525;22;20094;-84
2023/08/10 11:28:28;;;;;;;9.23;2.10;;;18.50;99.90;;;;;;6309111;22;20026;-84
2023/08/10 11:31:03;;;;;;;8.88;2.00;;;18.50;99.90;;;;;;6308060;22;20027;-84
2023/08/10 11:33:32;;;;;;;6.57;2.08;;;18.60;99.90;;;;;;6281436;22;20015;-84
2023/08/10 11:35:58;;;;;;;7.97;2.08;;;18.60;99.90;;;;;;6307468;22;20204;-84
2023/08/10 11:38:27;;;;;;;7.60;2.05;;;18.70;99.90;;;;;;6281848;22;20451;-84
2023/08/10 11:40:57;;;;;;;6.55;2.00;;;18.70;99.90;;;;;;6281343;22;20030;-84
2023/08/10 11:43:25;;;;;;;7.13;1.90;;;18.70;99.90;;;;;;6280434;22;20363;-84
2023/08/10 11:46:00;;;;;;;6.07;2.08;;;18.70;99.90;;;;;;6280744;22;20327;-84
2023/08/10 11:48:36;;;;;;;7.47;2.45;;;19.10;99.90;;;;;;6308873;22;20305;-84
2023/08/10 11:51:30;;;;;;;7.32;2.13;;;18.60;99.90;;;;;;6307973;22;20090;-84
2023/08/10 11:54:09;;;;;;;6.85;2.35;;;18.80;99.90;;;;;;6280294;22;20077;-85
2023/08/10 11:56:47;;;;;;;9.55;2.38;;;18.60;99.90;;;;;;6280953;22;20019;-84
2023/08/10 11:59:14;;;;;;;8.57;2.30;;;18.90;99.90;;;;;;6279846;22;20073;-85
2023/08/10 12:02:00;;;;;;;8.07;2.20;;;18.90;99.90;;;;;;6308485;22;20023;-84
2023/08/10 12:04:30;;;;;;;7.57;2.00;;;19.10;99.90;;;;;;6279839;22;20330;-85
2023/08/10 12:06:56;;;;;;;8.30;2.22;;;19.10;99.90;;;;;;6307065;22;20388;-84
2023/08/10 12:09:28;;;;;;;6.55;2.20;;;19.40;99.90;;;;;;6281108;22;20015;-84
2023/08/10 12:14:46;;;;;;;8.95;2.50;;;19.70;99.90;;;;;;6307191;22;20343;-84
2023/08/10 12:17:31;;;;;;;9.93;2.40;;;20.00;99.90;;;;;;6280526;22;20024;-84
2023/08/10 12:19:56;;;;;;;8.68;2.35;;;20.20;99.90;;;;;;6279406;22;20015;-83
2023/08/10 12:22:22;;;;;;;8.48;2.60;;;20.20;99.90;;;;;;6280963;22;20047;-84
2023/08/10 12:24:48;;;;;;;8.65;2.33;;;20.30;99.90;;;;;;6308247;22;20068;-84
2023/08/10 12:27:15;;;;;;;9.95;2.50;;;20.20;99.90;;;;;;6307553;22;20019;-83
2023/08/10 12:29:40;;;;;;;10.50;2.80;;;20.30;99.90;;;;;;6308504;22;20014;-84
2023/08/10 12:32:06;;;;;;;9.70;2.60;;;20.30;99.90;;;;;;6307491;22;20383;-84
2023/08/10 12:34:35;;;;;;;8.88;2.90;;;20.30;99.90;;;;;;6280209;22;20016;-83
2023/08/10 12:37:01;;;;;;;10.13;2.55;;;20.30;99.90;;;;;;6280994;22;20024;-84
2023/08/10 12:39:42;;;;;;;8.98;2.80;;;20.30;99.90;;;;;;6279888;22;20011;-84
2023/08/10 12:42:07;;;;;;;8.65;2.80;;;20.30;99.90;;;;;;6308418;22;20016;-84
2023/08/10 12:45:24;;;;;;;11.25;3.22;;;20.20;99.90;;;;;;6274347;22;20110;-83
2023/08/10 12:47:50;;;;;;;10.23;3.03;;;20.10;99.90;;;;;;6279236;22;20044;-84
2023/08/10 12:50:17;;;;;;;9.13;2.95;;;20.20;99.90;;;;;;6308431;22;20082;-84
2023/08/10 12:52:53;;;;;;;8.75;2.80;;;20.10;99.90;;;;;;6307818;22;20097;-84
2023/08/10 12:55:30;;;;;;;8.27;2.85;;;20.20;99.90;;;;;;6279399;22;20019;-84
2023/08/10 12:57:56;;;;;;;8.57;2.70;;;20.20;99.90;;;;;;6280023;22;20015;-83
2023/08/10 13:04:24;;;;;;;9.68;2.90;;;20.20;99.90;;;;;;6307611;22;20054;-83
2023/08/10 13:06:49;;;;;;;8.13;3.05;;;20.20;99.90;;;;;;6307818;22;20018;-84
2023/08/10 13:12:56;;;;;;;9.63;2.95;;;20.30;99.90;;;;;;6307283;22;20014;-83
2023/08/10 13:15:22;;;;;;;9.45;3.13;;;20.30;99.90;;;;;;6306819;22;20086;-83
2023/08/10 13:17:47;;;;;;;9.30;3.20;;;20.40;99.90;;;;;;6279802;22;20525;-84
2023/08/10 13:20:13;;;;;;;9.68;3.00;;;20.10;99.90;;;;;;6280391;22;20045;-83
2023/08/10 13:22:49;;;;;;;10.75;3.00;;;20.30;99.90;;;;;;6306218;22;20095;-83
2023/08/10 13:25:15;;;;;;;11.98;3.40;;;20.30;99.90;;;;;;6280255;22;20015;-84
2023/08/10 13:27:41;;;;;;;9.88;3.17;;;20.30;99.90;;;;;;6279862;22;20014;-84
2023/08/10 13:30:07;;;;;;;9.27;3.20;;;20.30;99.90;;;;;;6279103;22;20206;-83
2023/08/10 13:32:45;;;;;;;10.93;3.30;;;20.30;99.90;;;;;;6280118;22;20015;-84
2023/08/10 13:35:11;;;;;;;10.07;3.35;;;20.20;99.90;;;;;;6279739;22;20022;-83
2023/08/10 13:37:38;;;;;;;9.93;3.13;;;20.40;99.90;;;;;;6306568;22;20019;-84
2023/08/10 13:40:13;;;;;;;11.20;3.20;;;20.40;99.90;;;;;;6308551;22;20105;-84
2023/08/10 13:42:54;;;;;;;8.50;3.25;;;20.40;99.90;;;;;;6307251;22;20069;-84
2023/08/10 13:45:19;;;;;;;8.43;3.22;;;20.60;99.90;;;;;;6279277;22;20023;-84